Time;durP1;ratioP1;P1;durP2;ratioP2;P2;SDS_P1;SDS_P2;PMS_P1;PMS_P2;Temp;Humidity;BMP_temperature;BMP_pressure;BME280_temperature;BME280_humidity;BME280_pressure;Samples;Min_cycle;Max_cycle;Signal;HPM_P1;HPM_P2
2021/11/05 00:03:46;;;;;;;16.23;7.50;;;;;;;;;;10248034;28;20038;-67
2021/11/05 00:08:43;;;;;;;19.40;7.37;;;;;;;;;;10248018;28;20122;-66
2021/11/05 00:13:41;;;;;;;10.30;5.13;;;;;;;;;;10251828;28;20389;-66
2021/11/05 00:18:38;;;;;;;14.30;5.90;;;;;;;;;;10254507;28;20042;-66
2021/11/05 00:23:36;;;;;;;14.03;3.50;;;;;;;;;;10254817;28;20326;-66
2021/11/05 00:28:33;;;;;;;6.87;3.33;;;;;;;;;;10252485;28;20034;-67
2021/11/05 00:33:30;;;;;;;8.90;4.13;;;;;;;;;;10248011;28;20030;-67
2021/11/05 00:38:28;;;;;;;7.40;3.33;;;;;;;;;;10242619;28;20096;-66
2021/11/05 00:43:25;;;;;;;6.73;4.23;;;;;;;;;;10252266;28;20042;-67
2021/11/05 00:48:23;;;;;;;4.43;3.50;;;;;;;;;;10259823;28;20029;-67
2021/11/05 00:53:20;;;;;;;5.10;3.77;;;;;;;;;;10257494;28;20038;-66
2021/11/05 00:58:18;;;;;;;6.93;4.07;;;;;;;;;;10260647;28;20038;-67
2021/11/05 01:03:15;;;;;;;4.77;3.07;;;;;;;;;;10249987;28;20030;-65
2021/11/05 01:08:12;;;;;;;9.23;3.40;;;;;;;;;;10242411;28;20562;-65
2021/11/05 01:13:10;;;;;;;6.67;3.30;;;;;;;;;;10236881;28;20128;-65
2021/11/05 01:18:07;;;;;;;9.20;3.73;;;;;;;;;;10243341;28;20034;-67
2021/11/05 01:23:06;;;;;;;6.40;3.73;;;;;;;;;;10250610;28;20106;-66
2021/11/05 01:28:03;;;;;;;;;;;;;;;;;;10251606;28;20068;-67
2021/11/05 01:33:06;;;;;;;7.30;3.55;;;;;;;;;;10251576;28;19976;-67
2021/11/05 01:38:06;;;;;;;2.72;1.67;;;;;;;;;;10236040;28;20030;-68
2021/11/05 01:43:04;;;;;;;2.50;2.10;;;;;;;;;;10221036;28;20481;-69
2021/11/05 01:48:01;;;;;;;2.77;1.50;;;;;;;;;;10225457;28;20212;-67
2021/11/05 01:53:00;;;;;;;1.93;1.23;;;;;;;;;;10250773;28;20569;-67
2021/11/05 01:57:57;;;;;;;4.93;1.50;;;;;;;;;;10253263;28;20472;-66
2021/11/05 02:02:55;;;;;;;0.70;0.70;;;;;;;;;;10270491;28;20473;-68
2021/11/05 02:07:53;;;;;;;4.03;0.87;;;;;;;;;;10261979;28;20034;-65
2021/11/05 02:12:52;;;;;;;0.57;0.57;;;;;;;;;;10261470;28;20042;-66
2021/11/05 02:17:49;;;;;;;1.27;0.55;;;;;;;;;;10267620;28;20042;-66
2021/11/05 02:22:47;;;;;;;2.57;1.20;;;;;;;;;;10264715;28;20038;-66
2021/11/05 02:27:45;;;;;;;0.88;0.63;;;;;;;;;;10261926;28;20398;-65
2021/11/05 02:32:43;;;;;;;3.90;0.60;;;;;;;;;;10255023;28;20169;-65
2021/11/05 02:37:41;;;;;;;2.60;0.63;;;;;;;;;;10261751;28;20627;-65
2021/11/05 02:42:39;;;;;;;1.17;0.52;;;;;;;;;;10256861;28;20492;-65
2021/11/05 02:47:37;;;;;;;1.02;0.60;;;;;;;;;;10254980;28;20444;-65
2021/11/05 02:52:35;;;;;;;1.58;0.75;;;;;;;;;;10260402;28;20030;-64
2021/11/05 02:57:32;;;;;;;19.20;2.83;;;;;;;;;;10255863;28;20524;-63
2021/11/05 03:02:29;;;;;;;3.30;0.60;;;;;;;;;;10251112;28;20448;-63
2021/11/05 03:07:27;;;;;;;0.83;0.67;;;;;;;;;;10259069;28;20492;-63
2021/11/05 03:12:24;;;;;;;1.97;0.80;;;;;;;;;;10254365;28;20037;-63
2021/11/05 03:17:23;;;;;;;8.60;1.00;;;;;;;;;;10254052;28;20092;-63
2021/11/05 03:22:20;;;;;;;;;;;;;;;;;;10262301;28;20076;-63
2021/11/05 03:27:18;;;;;;;3.40;1.42;;;;;;;;;;10264776;28;20264;-64
2021/11/05 03:32:15;;;;;;;1.20;1.20;;;;;;;;;;10257085;28;20042;-61
2021/11/05 03:37:13;;;;;;;1.87;1.20;;;;;;;;;;10257556;28;20038;-63
2021/11/05 03:42:10;;;;;;;11.20;1.20;;;;;;;;;;10249226;28;20428;-63
2021/11/05 03:47:07;;;;;;;3.67;1.13;;;;;;;;;;10256368;28;20026;-64
2021/11/05 03:52:05;;;;;;;4.10;1.50;;;;;;;;;;10251089;28;20293;-64
2021/11/05 03:57:02;;;;;;;6.20;0.57;;;;;;;;;;10256717;28;20439;-65
2021/11/05 04:02:00;;;;;;;0.67;0.23;;;;;;;;;;10260437;28;20038;-64
2021/11/05 04:06:57;;;;;;;9.27;1.73;;;;;;;;;;10259383;28;20044;-65
2021/11/05 04:11:55;;;;;;;0.83;0.50;;;;;;;;;;10264030;28;20500;-65
2021/11/05 04:16:52;;;;;;;2.83;0.80;;;;;;;;;;10259118;28;20067;-63
2021/11/05 04:21:50;;;;;;;4.33;1.50;;;;;;;;;;10259238;28;20038;-62
2021/11/05 04:26:47;;;;;;;4.90;1.30;;;;;;;;;;10258505;28;20034;-63
2021/11/05 04:31:44;;;;;;;1.10;0.77;;;;;;;;;;10259460;28;20060;-62
2021/11/05 04:36:42;;;;;;;2.37;0.60;;;;;;;;;;10253250;28;20038;-63
2021/11/05 04:41:40;;;;;;;2.83;0.70;;;;;;;;;;10251378;28;20041;-62
2021/11/05 04:46:37;;;;;;;4.83;1.27;;;;;;;;;;10259413;28;20041;-63
2021/11/05 04:51:35;;;;;;;0.30;0.30;;;;;;;;;;10258197;28;20358;-63
2021/11/05 04:56:34;;;;;;;3.67;1.43;;;;;;;;;;10258027;28;20457;-63
2021/11/05 05:01:31;;;;;;;1.15;0.50;;;;;;;;;;10256789;28;20034;-63
2021/11/05 05:06:29;;;;;;;1.23;0.73;;;;;;;;;;10257076;28;20041;-63
2021/11/05 05:11:26;;;;;;;1.00;0.53;;;;;;;;;;10242570;28;20284;-62
2021/11/05 05:16:24;;;;;;;0.67;0.60;;;;;;;;;;10257272;28;20121;-63
2021/11/05 05:21:21;;;;;;;3.17;0.70;;;;;;;;;;10257167;28;20041;-62
2021/11/05 05:26:19;;;;;;;6.03;0.60;;;;;;;;;;10259796;28;20473;-63
2021/11/05 05:31:19;;;;;;;1.83;0.80;;;;;;;;;;10243546;28;20059;-63
2021/11/05 05:36:17;;;;;;;0.43;0.40;;;;;;;;;;10235859;28;20120;-62
2021/11/05 05:41:16;;;;;;;0.87;0.67;;;;;;;;;;10248457;28;20740;-62
2021/11/05 05:46:14;;;;;;;0.75;0.57;;;;;;;;;;10237205;28;20054;-62
2021/11/05 05:51:12;;;;;;;1.27;0.60;;;;;;;;;;10236658;28;20038;-63
2021/11/05 05:56:09;;;;;;;0.80;0.53;;;;;;;;;;10240532;28;20524;-62
2021/11/05 06:01:07;;;;;;;0.93;0.60;;;;;;;;;;10240862;28;20049;-63
2021/11/05 06:06:04;;;;;;;2.57;0.60;;;;;;;;;;10237825;28;20042;-61
2021/11/05 06:11:02;;;;;;;1.30;0.47;;;;;;;;;;10239736;28;20574;-61
2021/11/05 06:15:59;;;;;;;2.90;0.73;;;;;;;;;;10240005;28;20064;-63
2021/11/05 06:20:56;;;;;;;2.63;0.40;;;;;;;;;;10237171;28;20065;-63
2021/11/05 06:25:54;;;;;;;2.47;0.57;;;;;;;;;;10238825;28;20431;-63
2021/11/05 06:30:52;;;;;;;2.90;0.50;;;;;;;;;;10252750;28;20365;-62
2021/11/05 06:35:50;;;;;;;1.90;0.40;;;;;;;;;;10237417;28;20038;-62
2021/11/05 06:40:47;;;;;;;2.97;0.43;;;;;;;;;;10239592;28;20034;-63
2021/11/05 06:45:44;;;;;;;2.90;0.40;;;;;;;;;;10241319;28;20045;-63
2021/11/05 06:50:42;;;;;;;2.13;0.33;;;;;;;;;;10237423;28;20133;-63
2021/11/05 06:55:40;;;;;;;6.80;0.70;;;;;;;;;;10238569;28;20052;-62
2021/11/05 07:00:37;;;;;;;0.87;0.60;;;;;;;;;;10250026;28;20045;-62
2021/11/05 07:05:35;;;;;;;2.43;0.60;;;;;;;;;;10232555;28;20411;-63
2021/11/05 07:10:35;;;;;;;1.47;0.50;;;;;;;;;;10226657;28;20058;-63
2021/11/05 07:15:36;;;;;;;2.85;0.70;;;;;;;;;;10235531;28;20048;-62
2021/11/05 07:20:35;;;;;;;4.10;0.63;;;;;;;;;;10236140;28;20045;-63
2021/11/05 07:25:33;;;;;;;2.13;0.60;;;;;;;;;;10236124;28;20045;-62
2021/11/05 07:30:31;;;;;;;1.02;0.70;;;;;;;;;;10232712;28;20030;-62
2021/11/05 07:35:28;;;;;;;5.27;0.90;;;;;;;;;;10228761;28;20506;-63
2021/11/05 07:40:26;;;;;;;1.47;0.50;;;;;;;;;;10236143;28;20119;-63
2021/11/05 07:45:25;;;;;;;0.10;0.10;;;;;;;;;;10233965;28;20522;-63
2021/11/05 07:50:24;;;;;;;4.35;0.57;;;;;;;;;;10236598;28;20042;-63
2021/11/05 07:55:22;;;;;;;1.02;0.20;;;;;;;;;;10240800;28;20129;-62
2021/11/05 08:00:19;;;;;;;2.47;0.40;;;;;;;;;;10238915;28;20046;-63
2021/11/05 08:05:17;;;;;;;1.83;0.30;;;;;;;;;;10239628;28;20633;-63
2021/11/05 08:10:20;;;;;;;0.20;0.20;;;;;;;;;;10230947;28;20042;-63
2021/11/05 08:15:18;;;;;;;2.33;0.20;;;;;;;;;;10233559;28;20500;-63
2021/11/05 08:20:16;;;;;;;;;;;;;;;;;;10232054;28;21441;-63
2021/11/05 08:25:15;;;;;;;1.65;0.50;;;;;;;;;;10234380;28;20030;-63
2021/11/05 08:30:12;;;;;;;;;;;;;;;;;;10236708;28;20041;-63
2021/11/05 08:35:10;;;;;;;1.38;0.50;;;;;;;;;;10235084;28;19921;-63
2021/11/05 08:40:07;;;;;;;1.00;0.77;;;;;;;;;;10230880;28;20143;-63
2021/11/05 08:45:07;;;;;;;0.97;0.30;;;;;;;;;;10234286;28;20611;-63
2021/11/05 08:50:08;;;;;;;0.77;0.68;;;;;;;;;;10238824;28;20045;-64
2021/11/05 08:55:06;;;;;;;0.40;0.40;;;;;;;;;;10236859;28;20187;-64
2021/11/05 09:00:15;;;;;;;2.53;0.40;;;;;;;;;;10239759;28;20465;-63
2021/11/05 09:05:13;;;;;;;0.98;0.30;;;;;;;;;;10235765;28;20045;-63
2021/11/05 09:10:11;;;;;;;1.88;0.65;;;;;;;;;;10239466;28;20308;-63
2021/11/05 09:15:09;;;;;;;0.73;0.43;;;;;;;;;;10238620;28;20096;-63
2021/11/05 09:20:08;;;;;;;1.42;0.40;;;;;;;;;;10236639;28;20483;-64
2021/11/05 09:25:06;;;;;;;3.97;0.43;;;;;;;;;;10239113;28;20041;-65
2021/11/05 09:30:05;;;;;;;4.13;0.57;;;;;;;;;;10235859;28;20045;-63
2021/11/05 09:35:03;;;;;;;2.80;1.27;;;;;;;;;;10244239;28;20048;-63
2021/11/05 09:40:02;;;;;;;1.13;0.40;;;;;;;;;;10241875;28;20496;-63
2021/11/05 09:44:59;;;;;;;3.40;0.32;;;;;;;;;;10240650;28;20095;-63
2021/11/05 09:49:57;;;;;;;3.90;0.60;;;;;;;;;;10234459;28;20038;-62
2021/11/05 09:54:58;;;;;;;3.27;0.37;;;;;;;;;;10241277;28;20235;-62
2021/11/05 09:59:58;;;;;;;0.73;0.22;;;;;;;;;;10245019;28;20092;-63
2021/11/05 10:04:58;;;;;;;1.95;0.40;;;;;;;;;;10237341;28;20038;-63
2021/11/05 10:09:56;;;;;;;3.30;0.40;;;;;;;;;;10235193;28;20475;-63
2021/11/05 10:14:53;;;;;;;;;;;;;;;;;;10239248;28;20107;-62
2021/11/05 10:19:53;;;;;;;2.47;0.50;;;;;;;;;;10234339;28;19963;-64
2021/11/05 10:24:50;;;;;;;0.52;0.40;;;;;;;;;;10237461;28;20050;-64
2021/11/05 10:29:53;;;;;;;4.70;0.70;;;;;;;;;;10241828;28;20034;-64
2021/11/05 10:34:54;;;;;;;2.15;0.40;;;;;;;;;;10220469;28;20072;-63
2021/11/05 10:39:52;;;;;;;0.20;0.20;;;;;;;;;;10239367;28;20389;-63
2021/11/05 10:45:08;;;;;;;1.67;0.43;;;;;;;;;;10239493;28;20038;-64
2021/11/05 10:50:10;;;;;;;1.88;0.22;;;;;;;;;;10238356;28;20042;-64
2021/11/05 10:55:08;;;;;;;4.55;0.60;;;;;;;;;;10237401;28;20081;-63
2021/11/05 11:00:25;;;;;;;0.32;0.20;;;;;;;;;;10234821;28;20041;-64
2021/11/05 11:05:33;;;;;;;0.68;0.20;;;;;;;;;;10232766;28;20344;-64
2021/11/05 11:10:33;;;;;;;3.35;0.50;;;;;;;;;;10236539;28;20505;-64
2021/11/05 11:15:31;;;;;;;0.52;0.30;;;;;;;;;;10241239;28;20091;-64
2021/11/05 11:20:32;;;;;;;1.90;0.40;;;;;;;;;;10234626;28;20040;-65
2021/11/05 11:25:30;;;;;;;0.60;0.22;;;;;;;;;;10234081;28;20053;-63
2021/11/05 11:30:27;;;;;;;5.95;0.30;;;;;;;;;;10234269;28;20042;-63
2021/11/05 11:35:25;;;;;;;2.40;0.50;;;;;;;;;;10231689;28;20717;-64
2021/11/05 11:40:23;;;;;;;0.40;0.30;;;;;;;;;;10227192;28;20840;-64
2021/11/05 11:45:20;;;;;;;4.13;0.63;;;;;;;;;;10230628;28;20084;-64
2021/11/05 11:50:21;;;;;;;0.33;0.20;;;;;;;;;;10228787;28;20042;-64
2021/11/05 11:55:19;;;;;;;0.93;0.43;;;;;;;;;;10230204;28;20054;-65
2021/11/05 12:00:24;;;;;;;0.30;0.30;;;;;;;;;;10219607;28;20041;-65
2021/11/05 12:05:21;;;;;;;0.93;0.40;;;;;;;;;;10214845;28;20136;-65
2021/11/05 12:10:22;;;;;;;2.03;0.50;;;;;;;;;;10215127;28;20038;-65
2021/11/05 12:15:20;;;;;;;3.13;0.47;;;;;;;;;;10230087;28;20046;-66
2021/11/05 12:20:37;;;;;;;0.73;0.30;;;;;;;;;;10230375;28;20576;-65
2021/11/05 12:25:45;;;;;;;2.05;0.40;;;;;;;;;;10239906;28;20133;-67
2021/11/05 12:30:47;;;;;;;1.23;0.25;;;;;;;;;;10230187;28;20054;-66
2021/11/05 12:35:48;;;;;;;2.30;0.40;;;;;;;;;;10230251;28;20301;-67
2021/11/05 12:40:55;;;;;;;1.45;0.40;;;;;;;;;;10218971;28;20419;-68
2021/11/05 12:45:54;;;;;;;1.63;0.30;;;;;;;;;;10229462;28;20042;-67
2021/11/05 12:50:51;;;;;;;3.97;0.73;;;;;;;;;;10225576;28;20475;-65
2021/11/05 12:55:49;;;;;;;0.83;0.40;;;;;;;;;;10237256;28;20080;-65
2021/11/05 13:00:47;;;;;;;1.98;0.65;;;;;;;;;;10232105;28;20042;-65
2021/11/05 13:05:44;;;;;;;;;;;;;;;;;;10230257;28;20061;-65
2021/11/05 13:10:42;;;;;;;2.63;0.30;;;;;;;;;;10225134;28;21694;-65
2021/11/05 13:15:41;;;;;;;3.13;0.73;;;;;;;;;;10232713;28;20030;-66
2021/11/05 13:20:43;;;;;;;0.40;0.28;;;;;;;;;;10230985;28;20145;-67
2021/11/05 13:25:45;;;;;;;2.83;0.52;;;;;;;;;;10229983;28;20512;-67
2021/11/05 13:30:46;;;;;;;1.52;0.93;;;;;;;;;;10233335;28;20046;-66
2021/11/05 13:35:46;;;;;;;1.92;0.20;;;;;;;;;;10225286;28;20046;-66
2021/11/05 13:40:48;;;;;;;2.83;0.70;;;;;;;;;;10229030;28;20543;-67
2021/11/05 13:45:51;;;;;;;4.82;1.00;;;;;;;;;;10231681;28;20046;-67
2021/11/05 13:50:51;;;;;;;64.22;18.38;;;;;;;;;;10232589;28;20041;-67
2021/11/05 13:55:49;;;;;;;27.75;14.88;;;;;;;;;;10235441;28;20042;-67
2021/11/05 14:00:48;;;;;;;16.70;8.18;;;;;;;;;;10233764;28;20030;-67
2021/11/05 14:05:45;;;;;;;15.68;7.50;;;;;;;;;;10239663;28;20045;-65
2021/11/05 14:10:58;;;;;;;17.40;7.57;;;;;;;;;;10238235;28;20420;-64
2021/11/05 14:16:12;;;;;;;8.68;4.38;;;;;;;;;;10223467;28;20405;-67
2021/11/05 14:21:16;;;;;;;8.05;3.38;;;;;;;;;;10222728;28;20034;-68
2021/11/05 14:26:21;;;;;;;5.32;2.95;;;;;;;;;;10234911;28;20349;-66
2021/11/05 14:31:19;;;;;;;5.88;3.05;;;;;;;;;;10237153;28;20474;-66
2021/11/05 14:36:20;;;;;;;3.27;1.83;;;;;;;;;;10242577;28;20050;-66
2021/11/05 14:41:28;;;;;;;13.57;2.88;;;;;;;;;;10262409;28;20091;-65
2021/11/05 14:46:25;;;;;;;13.93;2.27;;;;;;;;;;10262336;28;20567;-66
2021/11/05 14:51:23;;;;;;;12.17;2.63;;;;;;;;;;10262665;28;20735;-65
2021/11/05 14:56:24;;;;;;;5.38;1.30;;;;;;;;;;10262233;28;20033;-67
2021/11/05 15:01:23;;;;;;;3.90;1.42;;;;;;;;;;10258283;28;20184;-67
2021/11/05 15:06:21;;;;;;;3.30;0.82;;;;;;;;;;10258963;28;20069;-69
2021/11/05 15:11:19;;;;;;;4.10;0.70;;;;;;;;;;10262434;28;20072;-70
2021/11/05 15:16:19;;;;;;;2.97;0.85;;;;;;;;;;10265785;28;20042;-67
2021/11/05 15:21:16;;;;;;;7.65;0.70;;;;;;;;;;10259734;28;20049;-68
2021/11/05 15:26:15;;;;;;;3.73;0.77;;;;;;;;;;10259112;28;20034;-67
2021/11/05 15:31:13;;;;;;;2.75;1.05;;;;;;;;;;10261902;28;20056;-66
2021/11/05 15:36:11;;;;;;;2.15;0.85;;;;;;;;;;10245050;28;20049;-67
2021/11/05 15:41:09;;;;;;;;;;;;;;;;;;10242139;28;20047;-66
2021/11/05 15:46:11;;;;;;;2.43;0.50;;;;;;;;;;10251886;28;19925;-67
2021/11/05 15:51:09;;;;;;;5.13;0.40;;;;;;;;;;10231883;28;20569;-66
2021/11/05 15:56:08;;;;;;;1.52;0.68;;;;;;;;;;10246207;28;20096;-65
2021/11/05 16:01:05;;;;;;;1.17;0.40;;;;;;;;;;10246260;28;20041;-66
2021/11/05 16:06:05;;;;;;;5.43;1.70;;;;;;;;;;10244766;28;20477;-67
2021/11/05 16:11:03;;;;;;;2.35;1.55;;;;;;;;;;10240968;28;20539;-65
2021/11/05 16:16:00;;;;;;;6.18;3.42;;;;;;;;;;10243560;28;20510;-65
2021/11/05 16:20:58;;;;;;;4.18;2.72;;;;;;;;;;10239429;28;20408;-66
2021/11/05 16:25:56;;;;;;;2.87;1.97;;;;;;;;;;10246576;28;20034;-64
2021/11/05 16:30:53;;;;;;;4.00;1.33;;;;;;;;;;10241997;28;20451;-66
2021/11/05 16:35:50;;;;;;;3.30;0.97;;;;;;;;;;10241142;28;20072;-67
2021/11/05 16:40:48;;;;;;;1.03;0.97;;;;;;;;;;10245104;28;20519;-66
2021/11/05 16:45:45;;;;;;;2.33;1.53;;;;;;;;;;10248597;28;20038;-67
2021/11/05 16:50:43;;;;;;;4.90;1.10;;;;;;;;;;10245537;28;20042;-67
2021/11/05 16:55:41;;;;;;;2.67;0.80;;;;;;;;;;10246637;28;20120;-66
2021/11/05 17:00:38;;;;;;;2.75;0.95;;;;;;;;;;10245978;28;20511;-66
2021/11/05 17:05:36;;;;;;;1.23;0.53;;;;;;;;;;10247627;28;20749;-66
2021/11/05 17:10:42;;;;;;;3.03;1.60;;;;;;;;;;10242557;28;20034;-68
2021/11/05 17:15:43;;;;;;;1.73;1.63;;;;;;;;;;10245153;28;20439;-68
2021/11/05 17:20:40;;;;;;;1.25;0.90;;;;;;;;;;10244570;28;20045;-65
2021/11/05 17:25:38;;;;;;;1.50;0.53;;;;;;;;;;10238915;28;20056;-67
2021/11/05 17:30:35;;;;;;;1.03;0.77;;;;;;;;;;10249760;28;20042;-67
2021/11/05 17:35:33;;;;;;;1.57;1.33;;;;;;;;;;10257487;28;20455;-66
2021/11/05 17:40:31;;;;;;;3.33;0.40;;;;;;;;;;10252667;28;20045;-66
2021/11/05 17:45:28;;;;;;;6.07;1.40;;;;;;;;;;10247138;28;20129;-67
2021/11/05 17:50:25;;;;;;;2.93;0.97;;;;;;;;;;10249422;28;20040;-66
2021/11/05 17:55:24;;;;;;;4.50;1.50;;;;;;;;;;10253142;28;20029;-67
2021/11/05 18:00:25;;;;;;;3.80;0.93;;;;;;;;;;10253459;28;20037;-67
2021/11/05 18:05:22;;;;;;;1.77;0.95;;;;;;;;;;10249548;28;20038;-68
2021/11/05 18:10:20;;;;;;;0.65;0.60;;;;;;;;;;10250882;28;20036;-67
2021/11/05 18:15:18;;;;;;;1.40;0.83;;;;;;;;;;10253889;28;20431;-66
2021/11/05 18:20:15;;;;;;;4.57;0.77;;;;;;;;;;10244434;28;20299;-67
2021/11/05 18:25:13;;;;;;;5.73;1.53;;;;;;;;;;10251772;28;20136;-67
2021/11/05 18:30:13;;;;;;;4.93;1.43;;;;;;;;;;10252222;28;20099;-66
2021/11/05 18:35:11;;;;;;;3.92;1.40;;;;;;;;;;10251201;28;20038;-67
2021/11/05 18:40:09;;;;;;;3.72;1.17;;;;;;;;;;10236790;28;20096;-66
2021/11/05 18:45:09;;;;;;;3.53;0.98;;;;;;;;;;10241909;28;20132;-66
2021/11/05 18:50:06;;;;;;;0.85;0.63;;;;;;;;;;10231409;28;20047;-67
2021/11/05 18:55:04;;;;;;;2.63;1.17;;;;;;;;;;10243445;28;20037;-65
2021/11/05 19:00:03;;;;;;;1.38;0.88;;;;;;;;;;10236103;28;20044;-66
2021/11/05 19:05:01;;;;;;;2.70;1.20;;;;;;;;;;10234645;28;20128;-65
2021/11/05 19:09:58;;;;;;;1.53;0.50;;;;;;;;;;10231647;28;20038;-67
2021/11/05 19:14:56;;;;;;;0.77;0.50;;;;;;;;;;10234013;28;20042;-67
2021/11/05 19:19:54;;;;;;;1.27;0.53;;;;;;;;;;10230665;28;20405;-68
2021/11/05 19:24:52;;;;;;;0.68;0.50;;;;;;;;;;10234679;28;20052;-67
2021/11/05 19:29:49;;;;;;;0.90;0.50;;;;;;;;;;10236960;28;20041;-66
2021/11/05 19:34:46;;;;;;;0.50;0.50;;;;;;;;;;10242507;28;20034;-65
2021/11/05 19:39:44;;;;;;;7.37;1.07;;;;;;;;;;10236994;28;20049;-67
2021/11/05 19:44:44;;;;;;;0.77;0.63;;;;;;;;;;10247229;28;20192;-66
2021/11/05 19:49:42;;;;;;;5.53;0.95;;;;;;;;;;10235300;28;20057;-65
2021/11/05 19:54:40;;;;;;;4.28;0.80;;;;;;;;;;10250906;28;20112;-64
2021/11/05 19:59:37;;;;;;;0.83;0.70;;;;;;;;;;10258670;28;20559;-65
2021/11/05 20:04:35;;;;;;;1.83;1.03;;;;;;;;;;10259620;28;20041;-65
2021/11/05 20:09:32;;;;;;;2.60;1.27;;;;;;;;;;10256089;28;20482;-66
2021/11/05 20:14:31;;;;;;;3.08;0.68;;;;;;;;;;10246994;28;20029;-66
2021/11/05 20:19:30;;;;;;;7.07;0.90;;;;;;;;;;10241856;28;20025;-66
2021/11/05 20:24:27;;;;;;;6.47;1.10;;;;;;;;;;10251670;28;20499;-66
2021/11/05 20:29:26;;;;;;;2.53;0.90;;;;;;;;;;10266360;28;20688;-66
2021/11/05 20:34:27;;;;;;;6.38;1.48;;;;;;;;;;10249574;28;20038;-66
2021/11/05 20:39:28;;;;;;;3.63;0.75;;;;;;;;;;10236945;28;20037;-66
2021/11/05 20:44:27;;;;;;;1.85;0.47;;;;;;;;;;10249486;28;20042;-66
2021/11/05 20:49:24;;;;;;;0.85;0.50;;;;;;;;;;10248412;28;20026;-67
2021/11/05 20:54:22;;;;;;;9.10;1.10;;;;;;;;;;10252571;28;20029;-66
2021/11/05 20:59:19;;;;;;;6.10;1.07;;;;;;;;;;10252178;28;20684;-66
2021/11/05 21:04:17;;;;;;;2.03;1.17;;;;;;;;;;10249496;28;20047;-66
2021/11/05 21:09:16;;;;;;;11.75;2.33;;;;;;;;;;10281624;28;20554;-67
2021/11/05 21:14:16;;;;;;;19.55;8.05;;;;;;;;;;10297597;28;20037;-67
2021/11/05 21:19:13;;;;;;;10.45;4.47;;;;;;;;;;10297469;28;20061;-67
2021/11/05 21:24:11;;;;;;;4.43;2.70;;;;;;;;;;10296192;28;20164;-67
2021/11/05 21:29:11;;;;;;;5.85;2.83;;;;;;;;;;10296355;28;20068;-67
2021/11/05 21:34:10;;;;;;;6.38;2.65;;;;;;;;;;10298271;28;20037;-66
2021/11/05 21:39:07;;;;;;;8.85;2.78;;;;;;;;;;10297099;28;20045;-67
2021/11/05 21:44:05;;;;;;;5.83;1.70;;;;;;;;;;10295651;28;20048;-65
2021/11/05 21:49:03;;;;;;;7.63;1.60;;;;;;;;;;10295785;28;20134;-67
2021/11/05 21:54:01;;;;;;;4.65;1.38;;;;;;;;;;10294859;28;20459;-66
2021/11/05 21:58:58;;;;;;;1.13;0.63;;;;;;;;;;10296812;28;20037;-67
2021/11/05 22:03:56;;;;;;;9.13;1.47;;;;;;;;;;10294929;28;20060;-67
2021/11/05 22:08:53;;;;;;;3.77;1.00;;;;;;;;;;10296389;28;20076;-68
2021/11/05 22:13:53;;;;;;;1.43;1.10;;;;;;;;;;10297922;28;20045;-66
2021/11/05 22:18:50;;;;;;;1.50;0.90;;;;;;;;;;10304217;28;20053;-67
2021/11/05 22:23:48;;;;;;;3.77;0.83;;;;;;;;;;10304052;28;20041;-67
2021/11/05 22:28:45;;;;;;;3.30;0.97;;;;;;;;;;10302881;28;20492;-67
2021/11/05 22:33:43;;;;;;;4.80;1.27;;;;;;;;;;10301920;28;20248;-68
2021/11/05 22:38:41;;;;;;;2.23;0.77;;;;;;;;;;10303729;28;20043;-67
2021/11/05 22:43:38;;;;;;;1.40;0.53;;;;;;;;;;10303094;28;20048;-65
2021/11/05 22:48:36;;;;;;;1.60;0.50;;;;;;;;;;10301576;28;20307;-66
2021/11/05 22:53:33;;;;;;;1.03;0.43;;;;;;;;;;10302720;28;20052;-67
2021/11/05 22:58:32;;;;;;;1.47;0.63;;;;;;;;;;10265837;28;20038;-66
2021/11/05 23:03:29;;;;;;;8.23;1.30;;;;;;;;;;10243033;28;20092;-66
2021/11/05 23:08:28;;;;;;;4.17;0.80;;;;;;;;;;10252624;28;20142;-66
2021/11/05 23:13:26;;;;;;;2.35;0.50;;;;;;;;;;10248883;28;20064;-66
2021/11/05 23:18:24;;;;;;;1.60;0.55;;;;;;;;;;10258596;28;20136;-66
2021/11/05 23:23:22;;;;;;;1.33;0.60;;;;;;;;;;10249908;28;20040;-66
2021/11/05 23:28:19;;;;;;;1.90;0.70;;;;;;;;;;10232984;28;20932;-66
2021/11/05 23:33:17;;;;;;;4.87;0.87;;;;;;;;;;10257391;28;20030;-66
2021/11/05 23:38:15;;;;;;;1.30;0.63;;;;;;;;;;10256783;28;20400;-66
2021/11/05 23:43:13;;;;;;;8.00;0.90;;;;;;;;;;10263538;28;20026;-66
2021/11/05 23:48:10;;;;;;;5.10;0.73;;;;;;;;;;10264137;28;20034;-66
2021/11/05 23:53:08;;;;;;;1.97;0.60;;;;;;;;;;10256411;28;20467;-65
2021/11/05 23:58:06;;;;;;;4.93;0.70;;;;;;;;;;10269503;28;20037;-66
